sensor_id;sensor_type;location;lat;lon;timestamp;temperature;humidity
46091;DHT22;31826;53.572;10.170;2023-03-14T00:02:03;11.00;99.90
46091;DHT22;31826;53.572;10.170;2023-03-14T00:04:29;11.00;99.90
46091;DHT22;31826;53.572;10.170;2023-03-14T00:06:55;10.90;99.90
46091;DHT22;31826;53.572;10.170;2023-03-14T00:09:20;10.90;99.90
46091;DHT22;31826;53.572;10.170;2023-03-14T00:11:46;10.90;99.90
46091;DHT22;31826;53.572;10.170;2023-03-14T00:14:12;10.70;99.90
46091;DHT22;31826;53.572;10.170;2023-03-14T00:16:37;10.90;99.90
46091;DHT22;31826;53.572;10.170;2023-03-14T00:19:03;10.90;99.90
46091;DHT22;31826;53.572;10.170;2023-03-14T00:21:29;10.80;99.90
46091;DHT22;31826;53.572;10.170;2023-03-14T00:23:54;10.80;99.90
46091;DHT22;31826;53.572;10.170;2023-03-14T00:26:21;10.80;99.90
46091;DHT22;31826;53.572;10.170;2023-03-14T00:28:47;10.80;99.90
46091;DHT22;31826;53.572;10.170;2023-03-14T00:31:16;10.80;99.90
46091;DHT22;31826;53.572;10.170;2023-03-14T00:33:43;10.70;99.90
46091;DHT22;31826;53.572;10.170;2023-03-14T00:36:11;10.70;99.90
46091;DHT22;31826;53.572;10.170;2023-03-14T00:38:39;10.70;99.90
46091;DHT22;31826;53.572;10.170;2023-03-14T00:41:13;10.70;99.90
46091;DHT22;31826;53.572;10.170;2023-03-14T00:43:39;10.80;99.90
46091;DHT22;31826;53.572;10.170;2023-03-14T00:46:05;10.70;99.90
46091;DHT22;31826;53.572;10.170;2023-03-14T00:48:31;10.60;99.90
46091;DHT22;31826;53.572;10.170;2023-03-14T00:50:57;10.60;99.90
46091;DHT22;31826;53.572;10.170;2023-03-14T00:53:23;10.60;99.90
46091;DHT22;31826;53.572;10.170;2023-03-14T00:55:49;10.60;99.90
46091;DHT22;31826;53.572;10.170;2023-03-14T00:58:17;10.50;99.90
46091;DHT22;31826;53.572;10.170;2023-03-14T01:00:44;10.50;99.90
46091;DHT22;31826;53.572;10.170;2023-03-14T01:03:10;10.50;99.90
46091;DHT22;31826;53.572;10.170;2023-03-14T01:05:37;10.40;99.90
46091;DHT22;31826;53.572;10.170;2023-03-14T01:08:04;10.40;99.90
46091;DHT22;31826;53.572;10.170;2023-03-14T01:10:29;10.40;99.90
46091;DHT22;31826;53.572;10.170;2023-03-14T01:12:55;10.40;99.90
46091;DHT22;31826;53.572;10.170;2023-03-14T01:15:21;10.50;99.90
46091;DHT22;31826;53.572;10.170;2023-03-14T01:17:47;10.50;99.90
46091;DHT22;31826;53.572;10.170;2023-03-14T01:20:14;10.50;99.90
46091;DHT22;31826;53.572;10.170;2023-03-14T01:22:41;10.50;99.90
46091;DHT22;31826;53.572;10.170;2023-03-14T01:25:10;10.50;99.90
46091;DHT22;31826;53.572;10.170;2023-03-14T01:27:37;10.50;99.90
46091;DHT22;31826;53.572;10.170;2023-03-14T01:30:04;10.40;99.90
46091;DHT22;31826;53.572;10.170;2023-03-14T01:32:30;10.50;99.90
46091;DHT22;31826;53.572;10.170;2023-03-14T01:34:56;10.50;99.90
46091;DHT22;31826;53.572;10.170;2023-03-14T01:37:22;10.40;99.90
46091;DHT22;31826;53.572;10.170;2023-03-14T01:39:48;10.40;99.90
46091;DHT22;31826;53.572;10.170;2023-03-14T01:42:14;10.40;99.90
46091;DHT22;31826;53.572;10.170;2023-03-14T01:44:58;10.30;99.90
46091;DHT22;31826;53.572;10.170;2023-03-14T01:47:25;10.10;99.90
46091;DHT22;31826;53.572;10.170;2023-03-14T01:50:01;10.30;99.90
46091;DHT22;31826;53.572;10.170;2023-03-14T01:52:32;10.30;99.90
46091;DHT22;31826;53.572;10.170;2023-03-14T01:55:17;10.30;99.90
46091;DHT22;31826;53.572;10.170;2023-03-14T01:57:48;10.30;99.90
46091;DHT22;31826;53.572;10.170;2023-03-14T02:00:18;10.30;99.90
46091;DHT22;31826;53.572;10.170;2023-03-14T02:02:47;10.30;99.90
46091;DHT22;31826;53.572;10.170;2023-03-14T02:05:17;10.30;99.90
46091;DHT22;31826;53.572;10.170;2023-03-14T02:07:52;10.30;99.90
46091;DHT22;31826;53.572;10.170;2023-03-14T02:10:22;10.40;99.90
46091;DHT22;31826;53.572;10.170;2023-03-14T02:12:49;10.30;99.90
46091;DHT22;31826;53.572;10.170;2023-03-14T02:15:16;10.30;99.90
46091;DHT22;31826;53.572;10.170;2023-03-14T02:17:43;10.20;99.90
46091;DHT22;31826;53.572;10.170;2023-03-14T02:23:51;10.30;99.90
46091;DHT22;31826;53.572;10.170;2023-03-14T02:26:20;10.20;99.90
46091;DHT22;31826;53.572;10.170;2023-03-14T02:28:48;10.20;99.90
46091;DHT22;31826;53.572;10.170;2023-03-14T02:31:15;10.20;99.90
46091;DHT22;31826;53.572;10.170;2023-03-14T02:33:41;10.20;99.90
46091;DHT22;31826;53.572;10.170;2023-03-14T02:36:11;10.30;99.90
46091;DHT22;31826;53.572;10.170;2023-03-14T02:38:42;10.30;99.90
46091;DHT22;31826;53.572;10.170;2023-03-14T02:41:11;10.30;99.90
46091;DHT22;31826;53.572;10.170;2023-03-14T02:43:36;10.30;99.90
46091;DHT22;31826;53.572;10.170;2023-03-14T02:46:04;10.40;99.90
46091;DHT22;31826;53.572;10.170;2023-03-14T02:48:43;10.40;99.90
46091;DHT22;31826;53.572;10.170;2023-03-14T02:51:11;10.40;99.90
46091;DHT22;31826;53.572;10.170;2023-03-14T02:53:38;10.40;99.90
46091;DHT22;31826;53.572;10.170;2023-03-14T02:56:04;10.40;99.90
46091;DHT22;31826;53.572;10.170;2023-03-14T02:58:31;10.40;99.90
46091;DHT22;31826;53.572;10.170;2023-03-14T03:00:57;10.40;99.90
46091;DHT22;31826;53.572;10.170;2023-03-14T03:03:22;10.40;99.90
46091;DHT22;31826;53.572;10.170;2023-03-14T03:05:49;10.40;99.90
46091;DHT22;31826;53.572;10.170;2023-03-14T03:08:16;10.40;99.90
46091;DHT22;31826;53.572;10.170;2023-03-14T03:10:42;10.50;99.90
46091;DHT22;31826;53.572;10.170;2023-03-14T03:13:07;10.50;99.90
46091;DHT22;31826;53.572;10.170;2023-03-14T03:15:33;10.40;99.90
46091;DHT22;31826;53.572;10.170;2023-03-14T03:17:59;10.40;99.90
46091;DHT22;31826;53.572;10.170;2023-03-14T03:20:25;10.50;99.90
46091;DHT22;31826;53.572;10.170;2023-03-14T03:22:50;10.50;99.90
46091;DHT22;31826;53.572;10.170;2023-03-14T03:25:16;10.50;99.90
46091;DHT22;31826;53.572;10.170;2023-03-14T03:27:42;10.60;99.90
46091;DHT22;31826;53.572;10.170;2023-03-14T03:30:08;10.60;99.90
46091;DHT22;31826;53.572;10.170;2023-03-14T03:32:34;10.60;99.90
46091;DHT22;31826;53.572;10.170;2023-03-14T03:35:02;10.50;99.90
46091;DHT22;31826;53.572;10.170;2023-03-14T03:37:30;10.50;99.90
46091;DHT22;31826;53.572;10.170;2023-03-14T03:39:56;10.60;99.90
46091;DHT22;31826;53.572;10.170;2023-03-14T03:42:22;10.50;99.90
46091;DHT22;31826;53.572;10.170;2023-03-14T03:44:48;10.50;99.90
46091;DHT22;31826;53.572;10.170;2023-03-14T03:47:14;10.50;99.90
46091;DHT22;31826;53.572;10.170;2023-03-14T03:49:39;10.50;99.90
46091;DHT22;31826;53.572;10.170;2023-03-14T03:52:05;10.60;99.90
46091;DHT22;31826;53.572;10.170;2023-03-14T03:54:31;10.60;99.90
46091;DHT22;31826;53.572;10.170;2023-03-14T03:56:56;10.60;99.90
46091;DHT22;31826;53.572;10.170;2023-03-14T03:59:22;10.60;99.90
46091;DHT22;31826;53.572;10.170;2023-03-14T04:01:48;10.60;99.90
46091;DHT22;31826;53.572;10.170;2023-03-14T04:04:14;10.60;99.90
46091;DHT22;31826;53.572;10.170;2023-03-14T04:06:39;10.60;99.90
46091;DHT22;31826;53.572;10.170;2023-03-14T04:09:07;10.50;99.90
46091;DHT22;31826;53.572;10.170;2023-03-14T04:11:33;10.50;99.90
46091;DHT22;31826;53.572;10.170;2023-03-14T04:13:59;10.50;99.90
46091;DHT22;31826;53.572;10.170;2023-03-14T04:16:25;10.60;99.90
46091;DHT22;31826;53.572;10.170;2023-03-14T04:18:52;10.60;99.90
46091;DHT22;31826;53.572;10.170;2023-03-14T04:21:18;10.60;99.90
46091;DHT22;31826;53.572;10.170;2023-03-14T04:23:43;10.60;99.90
46091;DHT22;31826;53.572;10.170;2023-03-14T04:26:09;10.60;99.90
46091;DHT22;31826;53.572;10.170;2023-03-14T04:28:35;10.50;99.90
46091;DHT22;31826;53.572;10.170;2023-03-14T04:31:21;10.50;99.90
46091;DHT22;31826;53.572;10.170;2023-03-14T04:33:46;10.50;99.90
46091;DHT22;31826;53.572;10.170;2023-03-14T04:36:13;10.50;99.90
46091;DHT22;31826;53.572;10.170;2023-03-14T04:38:39;10.40;99.90
46091;DHT22;31826;53.572;10.170;2023-03-14T04:41:05;10.40;99.90
46091;DHT22;31826;53.572;10.170;2023-03-14T04:43:31;10.40;99.90
46091;DHT22;31826;53.572;10.170;2023-03-14T04:45:58;10.50;99.90
46091;DHT22;31826;53.572;10.170;2023-03-14T04:48:25;10.50;99.90
46091;DHT22;31826;53.572;10.170;2023-03-14T04:50:50;10.50;99.90
46091;DHT22;31826;53.572;10.170;2023-03-14T04:53:17;10.60;99.90
46091;DHT22;31826;53.572;10.170;2023-03-14T04:55:48;10.60;99.90
46091;DHT22;31826;53.572;10.170;2023-03-14T04:58:14;10.60;99.90
46091;DHT22;31826;53.572;10.170;2023-03-14T05:00:40;10.70;99.90
46091;DHT22;31826;53.572;10.170;2023-03-14T05:03:05;10.60;99.90
46091;DHT22;31826;53.572;10.170;2023-03-14T05:05:31;10.60;99.90
46091;DHT22;31826;53.572;10.170;2023-03-14T05:07:57;10.70;99.90
46091;DHT22;31826;53.572;10.170;2023-03-14T05:10:22;10.70;99.90
46091;DHT22;31826;53.572;10.170;2023-03-14T05:12:48;10.70;99.90
46091;DHT22;31826;53.572;10.170;2023-03-14T05:15:14;10.70;99.90
46091;DHT22;31826;53.572;10.170;2023-03-14T05:17:39;10.70;99.90
46091;DHT22;31826;53.572;10.170;2023-03-14T05:20:06;10.70;99.90
46091;DHT22;31826;53.572;10.170;2023-03-14T05:22:34;10.70;99.90
46091;DHT22;31826;53.572;10.170;2023-03-14T05:25:00;10.70;99.90
46091;DHT22;31826;53.572;10.170;2023-03-14T05:27:26;10.70;99.90
46091;DHT22;31826;53.572;10.170;2023-03-14T05:29:51;10.70;99.90
46091;DHT22;31826;53.572;10.170;2023-03-14T05:32:17;10.70;99.90
46091;DHT22;31826;53.572;10.170;2023-03-14T05:34:43;10.60;99.90
46091;DHT22;31826;53.572;10.170;2023-03-14T05:37:08;10.60;99.90
46091;DHT22;31826;53.572;10.170;2023-03-14T05:39:34;10.70;99.90
46091;DHT22;31826;53.572;10.170;2023-03-14T05:42:00;10.60;99.90
46091;DHT22;31826;53.572;10.170;2023-03-14T05:44:25;10.50;99.90
46091;DHT22;31826;53.572;10.170;2023-03-14T05:46:51;10.50;99.90
46091;DHT22;31826;53.572;10.170;2023-03-14T05:49:17;10.50;99.90
46091;DHT22;31826;53.572;10.170;2023-03-14T05:51:42;10.40;99.90
46091;DHT22;31826;53.572;10.170;2023-03-14T05:54:08;10.30;99.90
46091;DHT22;31826;53.572;10.170;2023-03-14T05:56:34;10.30;99.90
46091;DHT22;31826;53.572;10.170;2023-03-14T05:59:00;10.20;99.90
46091;DHT22;31826;53.572;10.170;2023-03-14T06:01:28;10.20;99.90
46091;DHT22;31826;53.572;10.170;2023-03-14T06:03:54;10.10;99.90
46091;DHT22;31826;53.572;10.170;2023-03-14T06:06:20;10.10;99.90
46091;DHT22;31826;53.572;10.170;2023-03-14T06:08:45;10.10;99.90
46091;DHT22;31826;53.572;10.170;2023-03-14T06:11:11;10.00;99.90
46091;DHT22;31826;53.572;10.170;2023-03-14T06:13:37;10.00;99.90
46091;DHT22;31826;53.572;10.170;2023-03-14T06:16:03;10.10;99.90
46091;DHT22;31826;53.572;10.170;2023-03-14T06:18:28;10.10;99.90
46091;DHT22;31826;53.572;10.170;2023-03-14T06:20:55;10.00;99.90
46091;DHT22;31826;53.572;10.170;2023-03-14T06:23:21;10.10;99.90
46091;DHT22;31826;53.572;10.170;2023-03-14T06:25:47;10.10;99.90
46091;DHT22;31826;53.572;10.170;2023-03-14T06:28:13;10.10;99.90
46091;DHT22;31826;53.572;10.170;2023-03-14T06:30:39;10.10;99.90
46091;DHT22;31826;53.572;10.170;2023-03-14T06:33:04;10.10;99.90
46091;DHT22;31826;53.572;10.170;2023-03-14T06:35:30;10.10;99.90
46091;DHT22;31826;53.572;10.170;2023-03-14T06:37:56;10.10;99.90
46091;DHT22;31826;53.572;10.170;2023-03-14T06:40:22;10.20;99.90
46091;DHT22;31826;53.572;10.170;2023-03-14T06:42:48;10.20;99.90
46091;DHT22;31826;53.572;10.170;2023-03-14T06:45:14;10.30;99.90
46091;DHT22;31826;53.572;10.170;2023-03-14T06:47:40;10.30;99.90
46091;DHT22;31826;53.572;10.170;2023-03-14T06:50:07;10.40;99.90
46091;DHT22;31826;53.572;10.170;2023-03-14T06:52:33;10.40;99.90
46091;DHT22;31826;53.572;10.170;2023-03-14T06:54:59;10.40;99.90
46091;DHT22;31826;53.572;10.170;2023-03-14T06:57:24;10.40;99.90
46091;DHT22;31826;53.572;10.170;2023-03-14T06:59:50;10.40;99.90
46091;DHT22;31826;53.572;10.170;2023-03-14T07:02:16;10.40;99.90
46091;DHT22;31826;53.572;10.170;2023-03-14T07:04:42;10.40;99.90
46091;DHT22;31826;53.572;10.170;2023-03-14T07:07:08;10.30;99.90
46091;DHT22;31826;53.572;10.170;2023-03-14T07:09:34;10.40;99.90
46091;DHT22;31826;53.572;10.170;2023-03-14T07:12:00;10.40;99.90
46091;DHT22;31826;53.572;10.170;2023-03-14T07:14:26;10.40;99.90
46091;DHT22;31826;53.572;10.170;2023-03-14T07:16:51;10.40;99.90
46091;DHT22;31826;53.572;10.170;2023-03-14T07:19:17;10.40;99.90
46091;DHT22;31826;53.572;10.170;2023-03-14T07:21:43;10.40;99.90
46091;DHT22;31826;53.572;10.170;2023-03-14T07:24:09;10.40;99.90
46091;DHT22;31826;53.572;10.170;2023-03-14T07:26:35;10.40;99.90
46091;DHT22;31826;53.572;10.170;2023-03-14T07:29:01;10.40;99.90
46091;DHT22;31826;53.572;10.170;2023-03-14T07:31:29;10.50;99.90
46091;DHT22;31826;53.572;10.170;2023-03-14T07:33:55;10.40;99.90
46091;DHT22;31826;53.572;10.170;2023-03-14T07:36:20;10.40;99.90
46091;DHT22;31826;53.572;10.170;2023-03-14T07:38:46;10.40;99.90
46091;DHT22;31826;53.572;10.170;2023-03-14T07:41:12;10.40;99.90
46091;DHT22;31826;53.572;10.170;2023-03-14T07:43:38;10.50;99.90
46091;DHT22;31826;53.572;10.170;2023-03-14T07:46:03;10.50;99.90
46091;DHT22;31826;53.572;10.170;2023-03-14T07:48:29;10.50;99.90
46091;DHT22;31826;53.572;10.170;2023-03-14T07:50:55;10.60;99.90
46091;DHT22;31826;53.572;10.170;2023-03-14T07:53:22;10.60;99.90
46091;DHT22;31826;53.572;10.170;2023-03-14T07:55:48;10.70;99.90
46091;DHT22;31826;53.572;10.170;2023-03-14T07:58:14;10.70;99.90
46091;DHT22;31826;53.572;10.170;2023-03-14T08:00:39;10.70;99.90
46091;DHT22;31826;53.572;10.170;2023-03-14T08:03:05;10.70;99.90
46091;DHT22;31826;53.572;10.170;2023-03-14T08:05:33;10.60;99.90
46091;DHT22;31826;53.572;10.170;2023-03-14T08:07:59;10.70;99.90
46091;DHT22;31826;53.572;10.170;2023-03-14T08:10:25;10.70;99.90
46091;DHT22;31826;53.572;10.170;2023-03-14T08:12:55;10.60;99.90
46091;DHT22;31826;53.572;10.170;2023-03-14T08:15:22;10.60;99.90
46091;DHT22;31826;53.572;10.170;2023-03-14T08:17:49;10.60;99.90
46091;DHT22;31826;53.572;10.170;2023-03-14T08:20:17;10.60;99.90
46091;DHT22;31826;53.572;10.170;2023-03-14T08:22:43;10.60;99.90
46091;DHT22;31826;53.572;10.170;2023-03-14T08:25:09;10.60;99.90
46091;DHT22;31826;53.572;10.170;2023-03-14T08:27:36;10.60;99.90
46091;DHT22;31826;53.572;10.170;2023-03-14T08:30:05;10.70;99.90
46091;DHT22;31826;53.572;10.170;2023-03-14T08:32:30;10.80;99.90
46091;DHT22;31826;53.572;10.170;2023-03-14T08:34:56;10.90;99.90
46091;DHT22;31826;53.572;10.170;2023-03-14T08:37:22;10.90;99.90
46091;DHT22;31826;53.572;10.170;2023-03-14T08:39:50;10.90;99.90
46091;DHT22;31826;53.572;10.170;2023-03-14T08:42:16;11.00;99.90
46091;DHT22;31826;53.572;10.170;2023-03-14T08:44:42;11.00;99.90
46091;DHT22;31826;53.572;10.170;2023-03-14T08:47:08;11.10;99.90
46091;DHT22;31826;53.572;10.170;2023-03-14T08:49:33;11.00;99.90
46091;DHT22;31826;53.572;10.170;2023-03-14T08:52:01;11.00;99.90
46091;DHT22;31826;53.572;10.170;2023-03-14T08:54:27;11.00;99.90
46091;DHT22;31826;53.572;10.170;2023-03-14T08:56:53;11.00;99.90
46091;DHT22;31826;53.572;10.170;2023-03-14T08:59:18;11.00;99.90
46091;DHT22;31826;53.572;10.170;2023-03-14T09:01:44;11.10;99.90
46091;DHT22;31826;53.572;10.170;2023-03-14T09:04:10;11.10;99.90
46091;DHT22;31826;53.572;10.170;2023-03-14T09:06:36;11.00;99.90
46091;DHT22;31826;53.572;10.170;2023-03-14T09:09:01;11.10;99.90
46091;DHT22;31826;53.572;10.170;2023-03-14T09:11:27;11.00;99.90
46091;DHT22;31826;53.572;10.170;2023-03-14T09:13:53;11.00;99.90
46091;DHT22;31826;53.572;10.170;2023-03-14T09:16:19;11.00;99.90
46091;DHT22;31826;53.572;10.170;2023-03-14T09:18:44;10.90;99.90
46091;DHT22;31826;53.572;10.170;2023-03-14T09:21:10;10.70;99.90
46091;DHT22;31826;53.572;10.170;2023-03-14T09:23:36;10.80;99.90
46091;DHT22;31826;53.572;10.170;2023-03-14T09:26:02;10.70;99.90
46091;DHT22;31826;53.572;10.170;2023-03-14T09:28:27;10.80;99.90
46091;DHT22;31826;53.572;10.170;2023-03-14T09:30:53;10.90;99.90
46091;DHT22;31826;53.572;10.170;2023-03-14T09:33:19;10.90;99.90
46091;DHT22;31826;53.572;10.170;2023-03-14T09:35:45;10.90;99.90
46091;DHT22;31826;53.572;10.170;2023-03-14T09:38:11;10.90;99.90
46091;DHT22;31826;53.572;10.170;2023-03-14T09:40:38;10.90;99.90
46091;DHT22;31826;53.572;10.170;2023-03-14T09:43:04;10.90;99.90
46091;DHT22;31826;53.572;10.170;2023-03-14T09:45:36;10.90;99.90
46091;DHT22;31826;53.572;10.170;2023-03-14T09:48:04;10.90;99.90
46091;DHT22;31826;53.572;10.170;2023-03-14T09:50:38;10.80;99.90
46091;DHT22;31826;53.572;10.170;2023-03-14T09:53:11;10.90;99.90
46091;DHT22;31826;53.572;10.170;2023-03-14T09:55:38;10.80;99.90
46091;DHT22;31826;53.572;10.170;2023-03-14T09:58:17;10.80;99.90
46091;DHT22;31826;53.572;10.170;2023-03-14T10:00:44;10.70;99.90
46091;DHT22;31826;53.572;10.170;2023-03-14T10:05:40;10.50;99.90
46091;DHT22;31826;53.572;10.170;2023-03-14T10:08:06;10.40;99.90
46091;DHT22;31826;53.572;10.170;2023-03-14T10:10:34;10.30;99.90
46091;DHT22;31826;53.572;10.170;2023-03-14T10:13:21;10.10;99.90
46091;DHT22;31826;53.572;10.170;2023-03-14T10:18:19;9.20;99.90
46091;DHT22;31826;53.572;10.170;2023-03-14T10:20:47;8.90;99.90
46091;DHT22;31826;53.572;10.170;2023-03-14T10:25:44;8.50;99.90
46091;DHT22;31826;53.572;10.170;2023-03-14T10:28:38;8.40;99.90
46091;DHT22;31826;53.572;10.170;2023-03-14T10:31:05;8.40;99.90
46091;DHT22;31826;53.572;10.170;2023-03-14T10:33:32;8.40;99.90
46091;DHT22;31826;53.572;10.170;2023-03-14T10:38:34;8.40;99.90
46091;DHT22;31826;53.572;10.170;2023-03-14T10:41:01;8.30;99.90
46091;DHT22;31826;53.572;10.170;2023-03-14T10:43:31;8.40;99.90
46091;DHT22;31826;53.572;10.170;2023-03-14T10:46:01;8.40;99.90
46091;DHT22;31826;53.572;10.170;2023-03-14T10:48:33;8.30;99.90
46091;DHT22;31826;53.572;10.170;2023-03-14T10:53:45;8.10;99.90
46091;DHT22;31826;53.572;10.170;2023-03-14T10:56:17;7.80;99.90
46091;DHT22;31826;53.572;10.170;2023-03-14T10:58:45;7.60;99.90
46091;DHT22;31826;53.572;10.170;2023-03-14T11:04:25;7.30;99.90
46091;DHT22;31826;53.572;10.170;2023-03-14T11:21:53;6.70;99.90
46091;DHT22;31826;53.572;10.170;2023-03-14T11:27:25;6.50;99.90
46091;DHT22;31826;53.572;10.170;2023-03-14T11:29:58;6.60;99.90
46091;DHT22;31826;53.572;10.170;2023-03-14T11:32:48;6.50;99.90
46091;DHT22;31826;53.572;10.170;2023-03-14T11:35:22;6.40;99.90
46091;DHT22;31826;53.572;10.170;2023-03-14T11:37:56;6.40;99.90
46091;DHT22;31826;53.572;10.170;2023-03-14T11:40:26;6.40;99.90
46091;DHT22;31826;53.572;10.170;2023-03-14T11:43:18;6.40;99.90
46091;DHT22;31826;53.572;10.170;2023-03-14T11:45:47;6.30;99.90
46091;DHT22;31826;53.572;10.170;2023-03-14T11:48:35;6.30;99.90
46091;DHT22;31826;53.572;10.170;2023-03-14T11:51:11;6.40;99.90
46091;DHT22;31826;53.572;10.170;2023-03-14T11:56:59;6.30;99.90
46091;DHT22;31826;53.572;10.170;2023-03-14T12:02:05;6.30;99.90
46091;DHT22;31826;53.572;10.170;2023-03-14T12:04:40;6.40;99.90
46091;DHT22;31826;53.572;10.170;2023-03-14T12:07:32;6.50;99.90
46091;DHT22;31826;53.572;10.170;2023-03-14T12:10:02;6.60;99.90
46091;DHT22;31826;53.572;10.170;2023-03-14T12:12:29;6.60;99.90
46091;DHT22;31826;53.572;10.170;2023-03-14T12:15:00;6.60;99.90
46091;DHT22;31826;53.572;10.170;2023-03-14T12:17:38;6.60;99.90
46091;DHT22;31826;53.572;10.170;2023-03-14T12:20:18;6.60;99.90
46091;DHT22;31826;53.572;10.170;2023-03-14T12:22:45;6.60;99.90
46091;DHT22;31826;53.572;10.170;2023-03-14T12:30:33;6.40;99.90
46091;DHT22;31826;53.572;10.170;2023-03-14T12:35:57;6.40;99.90
46091;DHT22;31826;53.572;10.170;2023-03-14T12:38:55;6.40;99.90
46091;DHT22;31826;53.572;10.170;2023-03-14T12:41:42;6.50;99.90
46091;DHT22;31826;53.572;10.170;2023-03-14T12:46:54;6.40;99.90
46091;DHT22;31826;53.572;10.170;2023-03-14T12:49:20;6.40;99.90
46091;DHT22;31826;53.572;10.170;2023-03-14T12:51:48;6.40;99.90
46091;DHT22;31826;53.572;10.170;2023-03-14T13:00:20;6.40;99.90
46091;DHT22;31826;53.572;10.170;2023-03-14T13:02:47;6.40;99.90
46091;DHT22;31826;53.572;10.170;2023-03-14T13:05:24;6.30;99.90
46091;DHT22;31826;53.572;10.170;2023-03-14T13:12:52;6.30;99.90
46091;DHT22;31826;53.572;10.170;2023-03-14T13:15:26;6.30;99.90
46091;DHT22;31826;53.572;10.170;2023-03-14T13:17:56;6.30;99.90
46091;DHT22;31826;53.572;10.170;2023-03-14T13:20:34;6.30;99.90
46091;DHT22;31826;53.572;10.170;2023-03-14T13:23:01;6.40;99.90
46091;DHT22;31826;53.572;10.170;2023-03-14T13:25:33;6.40;99.90
46091;DHT22;31826;53.572;10.170;2023-03-14T13:28:01;6.40;99.90
46091;DHT22;31826;53.572;10.170;2023-03-14T13:30:29;6.40;99.90
46091;DHT22;31826;53.572;10.170;2023-03-14T13:33:04;6.60;99.90
46091;DHT22;31826;53.572;10.170;2023-03-14T13:35:39;6.70;99.90
46091;DHT22;31826;53.572;10.170;2023-03-14T13:38:19;6.70;99.90
46091;DHT22;31826;53.572;10.170;2023-03-14T13:40:46;6.70;99.90
46091;DHT22;31826;53.572;10.170;2023-03-14T13:43:18;6.80;99.90
46091;DHT22;31826;53.572;10.170;2023-03-14T13:45:52;6.90;99.90
46091;DHT22;31826;53.572;10.170;2023-03-14T13:48:20;7.00;99.90
46091;DHT22;31826;53.572;10.170;2023-03-14T13:50:55;7.00;99.90
46091;DHT22;31826;53.572;10.170;2023-03-14T13:53:22;7.10;99.90
46091;DHT22;31826;53.572;10.170;2023-03-14T13:55:48;7.20;99.90
46091;DHT22;31826;53.572;10.170;2023-03-14T13:58:41;7.20;99.90
46091;DHT22;31826;53.572;10.170;2023-03-14T14:03:46;7.00;99.90
46091;DHT22;31826;53.572;10.170;2023-03-14T14:06:26;7.00;98.70
46091;DHT22;31826;53.572;10.170;2023-03-14T14:08:54;7.20;99.90
46091;DHT22;31826;53.572;10.170;2023-03-14T14:11:28;7.30;99.90
46091;DHT22;31826;53.572;10.170;2023-03-14T14:13:55;7.40;99.90
46091;DHT22;31826;53.572;10.170;2023-03-14T14:16:24;7.50;99.90
46091;DHT22;31826;53.572;10.170;2023-03-14T14:18:52;7.30;99.90
46091;DHT22;31826;53.572;10.170;2023-03-14T14:21:19;7.30;99.90
46091;DHT22;31826;53.572;10.170;2023-03-14T14:23:45;7.20;99.80
46091;DHT22;31826;53.572;10.170;2023-03-14T14:26:17;7.00;98.60
46091;DHT22;31826;53.572;10.170;2023-03-14T14:28:43;6.70;98.70
46091;DHT22;31826;53.572;10.170;2023-03-14T14:34:00;6.80;97.90
46091;DHT22;31826;53.572;10.170;2023-03-14T14:36:50;6.90;99.40
46091;DHT22;31826;53.572;10.170;2023-03-14T14:39:19;7.00;98.50
46091;DHT22;31826;53.572;10.170;2023-03-14T14:41:53;7.00;99.00
46091;DHT22;31826;53.572;10.170;2023-03-14T14:44:30;6.90;98.80
46091;DHT22;31826;53.572;10.170;2023-03-14T14:46:58;7.00;99.40
46091;DHT22;31826;53.572;10.170;2023-03-14T14:49:30;7.00;99.90
46091;DHT22;31826;53.572;10.170;2023-03-14T14:52:03;7.00;98.50
46091;DHT22;31826;53.572;10.170;2023-03-14T14:54:37;7.00;99.70
46091;DHT22;31826;53.572;10.170;2023-03-14T14:57:12;6.90;99.20
46091;DHT22;31826;53.572;10.170;2023-03-14T14:59:42;6.80;99.50
46091;DHT22;31826;53.572;10.170;2023-03-14T15:02:44;6.70;97.60
46091;DHT22;31826;53.572;10.170;2023-03-14T15:07:43;6.50;97.00
46091;DHT22;31826;53.572;10.170;2023-03-14T15:10:15;6.50;96.40
46091;DHT22;31826;53.572;10.170;2023-03-14T15:12:41;6.70;97.00
46091;DHT22;31826;53.572;10.170;2023-03-14T15:15:07;6.70;96.80
46091;DHT22;31826;53.572;10.170;2023-03-14T15:17:33;6.50;96.60
46091;DHT22;31826;53.572;10.170;2023-03-14T15:19:59;6.60;97.80
46091;DHT22;31826;53.572;10.170;2023-03-14T15:22:25;6.60;97.80
46091;DHT22;31826;53.572;10.170;2023-03-14T15:24:50;6.60;97.50
46091;DHT22;31826;53.572;10.170;2023-03-14T15:27:17;6.50;97.20
46091;DHT22;31826;53.572;10.170;2023-03-14T15:29:43;6.40;97.90
46091;DHT22;31826;53.572;10.170;2023-03-14T15:32:14;6.50;98.30
46091;DHT22;31826;53.572;10.170;2023-03-14T15:34:41;6.60;98.50
46091;DHT22;31826;53.572;10.170;2023-03-14T15:37:15;6.80;99.00
46091;DHT22;31826;53.572;10.170;2023-03-14T15:39:42;6.80;97.90
46091;DHT22;31826;53.572;10.170;2023-03-14T15:42:08;6.70;98.50
46091;DHT22;31826;53.572;10.170;2023-03-14T15:44:34;6.60;97.30
46091;DHT22;31826;53.572;10.170;2023-03-14T15:47:00;6.40;97.20
46091;DHT22;31826;53.572;10.170;2023-03-14T15:49:26;6.30;97.80
46091;DHT22;31826;53.572;10.170;2023-03-14T15:51:52;6.30;97.50
46091;DHT22;31826;53.572;10.170;2023-03-14T15:54:18;6.30;97.10
46091;DHT22;31826;53.572;10.170;2023-03-14T15:56:43;6.30;98.00
46091;DHT22;31826;53.572;10.170;2023-03-14T15:59:09;6.30;97.60
46091;DHT22;31826;53.572;10.170;2023-03-14T16:01:35;6.20;97.00
46091;DHT22;31826;53.572;10.170;2023-03-14T16:04:00;6.10;96.60
46091;DHT22;31826;53.572;10.170;2023-03-14T16:06:28;6.20;97.80
46091;DHT22;31826;53.572;10.170;2023-03-14T16:08:53;6.20;97.80
46091;DHT22;31826;53.572;10.170;2023-03-14T16:11:19;6.10;96.80
46091;DHT22;31826;53.572;10.170;2023-03-14T16:13:46;6.10;97.10
46091;DHT22;31826;53.572;10.170;2023-03-14T16:16:12;6.10;97.50
46091;DHT22;31826;53.572;10.170;2023-03-14T16:18:39;6.10;97.70
46091;DHT22;31826;53.572;10.170;2023-03-14T16:21:16;5.90;97.70
46091;DHT22;31826;53.572;10.170;2023-03-14T16:23:42;6.00;98.00
46091;DHT22;31826;53.572;10.170;2023-03-14T16:26:13;6.00;98.40
46091;DHT22;31826;53.572;10.170;2023-03-14T16:28:40;6.00;98.10
46091;DHT22;31826;53.572;10.170;2023-03-14T16:31:12;5.90;98.10
46091;DHT22;31826;53.572;10.170;2023-03-14T16:33:38;6.00;99.40
46091;DHT22;31826;53.572;10.170;2023-03-14T16:36:06;5.90;98.50
46091;DHT22;31826;53.572;10.170;2023-03-14T16:38:38;5.90;98.70
46091;DHT22;31826;53.572;10.170;2023-03-14T16:41:12;5.90;99.30